createdAt,value
2022-08-25T00:00:22.637Z,5.82
2022-08-25T00:02:56.523Z,6.10
2022-08-25T00:05:32.265Z,6.30
2022-08-25T00:08:02.924Z,6.72
2022-08-25T00:10:32.527Z,6.10
2022-08-25T00:13:00.941Z,5.85
2022-08-25T00:15:32.620Z,6.20
2022-08-25T00:18:02.400Z,6.80
2022-08-25T00:20:31.160Z,6.00
2022-08-25T00:23:00.594Z,5.70
2022-08-25T00:25:30.836Z,6.63
2022-08-25T00:28:01.454Z,5.68
2022-08-25T00:30:32.848Z,5.60
2022-08-25T00:33:01.258Z,5.88
2022-08-25T00:35:30.007Z,6.32
2022-08-25T00:37:58.748Z,6.03
2022-08-25T00:40:29.059Z,5.50
2022-08-25T00:42:59.528Z,6.07
2022-08-25T00:45:28.739Z,6.00
2022-08-25T00:47:59.935Z,6.45
2022-08-25T00:50:30.686Z,5.93
2022-08-25T00:53:03.202Z,6.18
2022-08-25T00:55:37.353Z,6.70
2022-08-25T00:58:14.109Z,6.03
2022-08-25T01:00:46.790Z,6.43
2022-08-25T01:03:15.364Z,5.57
2022-08-25T01:05:44.870Z,5.88
2022-08-25T01:08:16.446Z,6.30
2022-08-25T01:10:46.976Z,6.30
2022-08-25T01:13:21.295Z,5.57
2022-08-25T01:15:51.536Z,6.07
2022-08-25T01:18:20.919Z,6.28
2022-08-25T01:20:53.701Z,6.85
2022-08-25T01:23:24.202Z,6.80
2022-08-25T01:25:59.699Z,6.30
2022-08-25T01:28:29.308Z,6.93
2022-08-25T01:30:57.704Z,5.93
2022-08-25T01:33:27.383Z,6.82
2022-08-25T01:35:57.484Z,6.03
2022-08-25T01:38:25.823Z,6.47
2022-08-25T01:40:55.165Z,6.25
2022-08-25T01:43:32.561Z,6.20
2022-08-25T01:46:01.816Z,6.47
2022-08-25T01:48:30.716Z,6.85
2022-08-25T01:51:00.444Z,6.85
2022-08-25T01:53:33.406Z,6.97
2022-08-25T01:56:11.421Z,6.57
2022-08-25T01:58:42.921Z,6.65
2022-08-25T02:01:16.402Z,5.82
2022-08-25T02:03:47.403Z,6.78
2022-08-25T02:06:22.230Z,6.60
2022-08-25T02:09:02.430Z,6.38
2022-08-25T02:11:30.808Z,6.93
2022-08-25T02:14:00.119Z,7.15
2022-08-25T02:16:31.657Z,6.55
2022-08-25T02:19:01.529Z,6.47
2022-08-25T02:21:32.840Z,7.32
2022-08-25T02:24:01.690Z,7.13
2022-08-25T02:26:30.793Z,7.30
2022-08-25T02:28:59.364Z,7.90
2022-08-25T02:31:29.240Z,7.03
2022-08-25T02:33:57.922Z,6.95
2022-08-25T02:36:27.378Z,7.57
2022-08-25T02:38:57.082Z,6.90
2022-08-25T02:41:31.068Z,8.07
2022-08-25T02:44:01.070Z,7.35
2022-08-25T02:46:31.439Z,7.50
2022-08-25T02:49:00.595Z,7.13
2022-08-25T02:51:30.866Z,7.85
2022-08-25T02:54:03.427Z,7.93
2022-08-25T02:56:33.444Z,7.35
2022-08-25T02:59:03.275Z,8.27
2022-08-25T03:01:32.562Z,8.00
2022-08-25T03:04:03.143Z,8.32
2022-08-25T03:06:31.661Z,8.00
2022-08-25T03:09:01.890Z,8.48
2022-08-25T03:11:30.319Z,8.15
2022-08-25T03:13:59.472Z,8.05
2022-08-25T03:16:28.245Z,7.97
2022-08-25T03:18:58.338Z,7.63
2022-08-25T03:21:27.857Z,7.57
2022-08-25T03:23:56.579Z,7.88
2022-08-25T03:26:59.253Z,8.20
2022-08-25T03:29:29.960Z,7.60
2022-08-25T03:32:00.454Z,6.97
2022-08-25T03:34:30.694Z,7.03
2022-08-25T03:37:00.133Z,7.68
2022-08-25T03:39:29.434Z,7.47
2022-08-25T03:41:59.604Z,8.57
2022-08-25T03:44:28.437Z,8.00
2022-08-25T03:46:57.341Z,7.88
2022-08-25T03:49:26.264Z,7.70
2022-08-25T03:51:55.855Z,8.00
2022-08-25T03:54:27.507Z,8.05
2022-08-25T03:56:56.866Z,8.00
2022-08-25T03:59:27.590Z,7.93
2022-08-25T04:01:55.983Z,7.20
2022-08-25T04:04:25.200Z,8.23
2022-08-25T04:06:53.998Z,8.05
2022-08-25T04:09:23.325Z,7.70
2022-08-25T04:11:53.353Z,9.20
2022-08-25T04:14:24.031Z,8.02
2022-08-25T04:16:54.217Z,8.90
2022-08-25T04:19:23.776Z,9.00
2022-08-25T04:21:56.683Z,9.05
2022-08-25T04:24:26.125Z,8.45
2022-08-25T04:26:54.568Z,8.95
2022-08-25T04:29:25.203Z,9.25
2022-08-25T04:31:56.783Z,8.77
2022-08-25T04:34:29.447Z,9.68
2022-08-25T04:37:01.738Z,9.40
2022-08-25T04:39:31.456Z,9.10
2022-08-25T04:42:00.876Z,10.43
2022-08-25T04:44:31.163Z,8.93
2022-08-25T04:47:01.930Z,8.70
2022-08-25T04:49:31.010Z,9.10
2022-08-25T04:51:59.339Z,8.63
2022-08-25T04:54:28.590Z,9.60
2022-08-25T04:57:01.182Z,9.77
2022-08-25T04:59:30.561Z,9.20
2022-08-25T05:02:03.317Z,9.55
2022-08-25T05:04:33.315Z,8.68
2022-08-25T05:07:03.233Z,8.70
2022-08-25T05:09:32.888Z,9.10
2022-08-25T05:12:03.081Z,8.73
2022-08-25T05:14:31.699Z,9.50
2022-08-25T05:17:02.168Z,9.90
2022-08-25T05:19:30.673Z,10.18
2022-08-25T05:21:59.438Z,9.70
2022-08-25T05:24:29.994Z,9.05
2022-08-25T05:26:58.731Z,8.63
2022-08-25T05:29:27.283Z,9.48
2022-08-25T05:31:56.182Z,9.32
2022-08-25T05:34:26.264Z,8.85
2022-08-25T05:36:55.157Z,9.93
2022-08-25T05:39:26.784Z,9.23
2022-08-25T05:41:56.219Z,8.13
2022-08-25T05:44:24.569Z,9.85
2022-08-25T05:46:53.502Z,8.88
2022-08-25T05:49:22.088Z,8.60
2022-08-25T05:51:52.184Z,9.45
2022-08-25T05:54:21.471Z,9.18
2022-08-25T05:56:49.836Z,10.13
2022-08-25T05:59:18.229Z,9.88
2022-08-25T06:02:04.015Z,11.35
2022-08-25T06:04:32.782Z,10.88
2022-08-25T06:07:02.697Z,11.27
2022-08-25T06:09:31.024Z,11.00
2022-08-25T06:11:59.979Z,11.57
2022-08-25T06:14:28.300Z,12.38
2022-08-25T06:16:57.387Z,11.93
2022-08-25T06:19:26.143Z,11.43
2022-08-25T06:21:56.726Z,11.98
2022-08-25T06:24:27.572Z,12.18
2022-08-25T06:26:57.517Z,12.02
2022-08-25T06:29:27.035Z,11.75
2022-08-25T06:31:55.525Z,12.18
2022-08-25T06:34:24.470Z,13.02
2022-08-25T06:36:53.739Z,10.43
2022-08-25T06:39:22.526Z,11.75
2022-08-25T06:41:57.304Z,11.88
2022-08-25T06:44:28.918Z,11.38
2022-08-25T06:46:57.756Z,11.80
2022-08-25T06:49:31.834Z,11.27
2022-08-25T06:52:02.570Z,11.40
2022-08-25T06:54:31.006Z,10.70
2022-08-25T06:57:00.781Z,10.70
2022-08-25T06:59:32.265Z,11.50
2022-08-25T07:02:01.384Z,11.43
2022-08-25T07:04:32.550Z,11.57
2022-08-25T07:07:00.937Z,12.00
2022-08-25T07:09:30.219Z,11.20
2022-08-25T07:12:00.101Z,11.60
2022-08-25T07:14:28.466Z,11.85
2022-08-25T07:16:58.272Z,10.73
2022-08-25T07:19:27.892Z,11.25
2022-08-25T07:21:56.198Z,11.13
2022-08-25T07:24:25.525Z,10.93
2022-08-25T07:26:53.981Z,11.77
2022-08-25T07:29:32.009Z,11.13
2022-08-25T07:32:01.890Z,11.13
2022-08-25T07:34:51.834Z,10.85
2022-08-25T07:37:47.176Z,10.27
2022-08-25T07:40:13.835Z,11.07
2022-08-25T07:42:43.169Z,10.98
2022-08-25T07:45:15.596Z,11.80
2022-08-25T07:47:51.542Z,11.88
2022-08-25T07:50:21.523Z,11.45
2022-08-25T07:52:55.224Z,12.05
2022-08-25T07:55:30.405Z,11.73
2022-08-25T07:58:00.810Z,12.38
2022-08-25T08:00:33.254Z,11.35
2022-08-25T08:03:03.893Z,11.40
2022-08-25T08:05:33.012Z,10.60
2022-08-25T08:08:02.526Z,11.07
2022-08-25T08:11:00.603Z,11.20
2022-08-25T08:13:21.073Z,11.75
2022-08-25T08:15:51.243Z,11.40
2022-08-25T08:18:20.464Z,11.23
2022-08-25T08:20:50.212Z,10.57
2022-08-25T08:23:18.827Z,11.35
2022-08-25T08:25:48.404Z,11.15
2022-08-25T08:28:16.754Z,11.07
2022-08-25T08:30:53.746Z,10.82
2022-08-25T08:33:25.728Z,11.25
2022-08-25T08:36:05.279Z,10.27
2022-08-25T08:38:34.808Z,10.85
2022-08-25T08:42:07.347Z,9.70
2022-08-25T08:44:37.339Z,11.05
2022-08-25T08:47:12.644Z,10.90
2022-08-25T08:49:53.671Z,10.07
2022-08-25T08:52:31.914Z,11.85
2022-08-25T08:55:06.439Z,10.70
2022-08-25T08:57:44.217Z,10.23
2022-08-25T09:00:13.833Z,10.98
2022-08-25T09:02:51.966Z,11.07
2022-08-25T09:05:25.980Z,10.82
2022-08-25T09:07:58.326Z,10.40
2022-08-25T09:10:33.459Z,10.85
2022-08-25T09:13:11.909Z,10.77
2022-08-25T09:16:07.928Z,11.32
2022-08-25T09:18:50.944Z,10.93
2022-08-25T09:21:31.340Z,9.85
2022-08-25T09:24:18.398Z,10.77
2022-08-25T09:27:00.606Z,10.23
2022-08-25T09:29:36.572Z,10.63
2022-08-25T09:32:08.699Z,11.02
2022-08-25T09:34:38.997Z,9.85
2022-08-25T09:37:09.068Z,10.38
2022-08-25T09:39:39.005Z,10.43
2022-08-25T09:42:08.468Z,11.13
2022-08-25T09:44:43.472Z,10.55
2022-08-25T09:47:23.420Z,10.50
2022-08-25T09:50:00.739Z,10.02
2022-08-25T09:52:37.438Z,10.40
2022-08-25T09:55:32.486Z,9.60
2022-08-25T09:58:01.239Z,11.07
2022-08-25T10:00:38.696Z,9.90
2022-08-25T10:03:15.470Z,9.85
2022-08-25T10:06:02.599Z,10.73
2022-08-25T10:08:36.999Z,9.98
2022-08-25T10:11:13.091Z,9.88
2022-08-25T10:13:45.483Z,10.57
2022-08-25T10:16:24.839Z,9.98
2022-08-25T10:19:10.361Z,10.80
2022-08-25T10:21:40.811Z,10.15
2022-08-25T10:24:12.876Z,10.05
2022-08-25T10:27:01.255Z,10.05
2022-08-25T10:29:47.074Z,10.25
2022-08-25T10:32:20.729Z,10.05
2022-08-25T10:34:52.555Z,11.40
2022-08-25T10:37:34.122Z,10.75
2022-08-25T10:40:22.774Z,10.85
2022-08-25T10:43:07.759Z,11.02
2022-08-25T10:45:46.413Z,10.73
2022-08-25T10:48:28.868Z,10.73
2022-08-25T10:51:04.062Z,10.38
2022-08-25T10:53:44.150Z,11.57
2022-08-25T10:56:19.274Z,9.38
2022-08-25T10:59:15.788Z,10.70
2022-08-25T11:01:59.784Z,10.55
2022-08-25T11:04:36.513Z,10.55
2022-08-25T11:07:10.810Z,9.95
2022-08-25T11:09:44.523Z,9.90
2022-08-25T11:12:20.228Z,9.80
2022-08-25T11:14:53.684Z,9.90
2022-08-25T11:17:26.163Z,10.95
2022-08-25T11:19:58.986Z,9.52
2022-08-25T11:22:34.445Z,10.00
2022-08-25T11:25:13.948Z,9.50
2022-08-25T11:27:48.815Z,9.77
2022-08-25T11:30:19.049Z,9.43
2022-08-25T11:32:50.638Z,9.98
2022-08-25T11:35:27.257Z,10.38
2022-08-25T11:38:10.771Z,9.93
2022-08-25T11:40:53.627Z,9.27
2022-08-25T11:43:46.119Z,9.75
2022-08-25T11:46:33.326Z,10.20
2022-08-25T11:49:16.369Z,9.68
2022-08-25T11:51:48.350Z,8.80
2022-08-25T11:54:26.547Z,9.35
2022-08-25T11:57:00.689Z,9.10
2022-08-25T12:00:12.476Z,9.45
2022-08-25T12:02:44.035Z,8.80
2022-08-25T12:05:59.963Z,9.45
2022-08-25T12:08:51.352Z,10.23
2022-08-25T12:11:46.784Z,9.05
2022-08-25T12:14:40.045Z,9.40
2022-08-25T12:17:21.262Z,8.80
2022-08-25T12:19:56.155Z,9.45
2022-08-25T12:22:55.582Z,9.35
2022-08-25T12:25:49.841Z,9.50
2022-08-25T12:28:44.143Z,8.63
2022-08-25T12:31:26.556Z,8.82
2022-08-25T12:34:10.789Z,9.18
2022-08-25T12:36:56.322Z,8.38
2022-08-25T12:39:31.894Z,8.30
2022-08-25T12:42:04.285Z,8.43
2022-08-25T12:44:42.094Z,8.52
2022-08-25T12:47:33.930Z,8.35
2022-08-25T12:50:36.205Z,8.45
2022-08-25T12:53:12.691Z,8.70
2022-08-25T12:55:45.971Z,8.00
2022-08-25T12:58:14.399Z,8.10
2022-08-25T13:01:20.190Z,7.72
2022-08-25T13:04:34.019Z,8.60
2022-08-25T13:07:22.007Z,7.03
2022-08-25T13:10:17.487Z,7.75
2022-08-25T13:12:52.575Z,7.22
2022-08-25T13:15:37.547Z,7.28
2022-08-25T13:18:19.733Z,7.65
2022-08-25T13:20:50.833Z,7.47
2022-08-25T13:23:27.218Z,7.13
2022-08-25T13:25:59.050Z,7.28
2022-08-25T13:28:32.190Z,6.80
2022-08-25T13:31:08.522Z,6.57
2022-08-25T13:33:37.617Z,6.60
2022-08-25T13:36:26.661Z,6.15
2022-08-25T13:39:13.778Z,6.75
2022-08-25T13:41:49.566Z,7.82
2022-08-25T13:44:27.125Z,6.65
2022-08-25T13:47:07.773Z,7.10
2022-08-25T13:49:37.248Z,6.70
2022-08-25T13:52:07.724Z,6.38
2022-08-25T13:54:42.347Z,6.55
2022-08-25T13:57:22.950Z,6.28
2022-08-25T13:59:58.055Z,6.20
2022-08-25T14:02:44.168Z,5.22
2022-08-25T14:05:14.186Z,5.35
2022-08-25T14:08:09.239Z,5.45
2022-08-25T14:10:46.419Z,5.50
2022-08-25T14:13:18.897Z,5.55
2022-08-25T14:15:47.683Z,5.68
2022-08-25T14:18:21.639Z,5.03
2022-08-25T14:20:58.029Z,5.07
2022-08-25T14:23:29.607Z,5.47
2022-08-25T14:26:00.450Z,4.93
2022-08-25T14:28:31.892Z,5.43
2022-08-25T14:31:05.292Z,5.53
2022-08-25T14:33:38.635Z,5.60
2022-08-25T14:36:08.825Z,5.90
2022-08-25T14:38:39.003Z,5.95
2022-08-25T14:41:11.206Z,7.07
2022-08-25T14:43:40.005Z,5.93
2022-08-25T14:46:18.341Z,6.10
2022-08-25T14:48:49.053Z,6.13
2022-08-25T14:51:18.147Z,5.90
2022-08-25T14:53:47.910Z,5.65
2022-08-25T14:56:17.659Z,5.63
2022-08-25T14:58:48.548Z,5.55
2022-08-25T15:01:28.961Z,6.10
2022-08-25T15:04:04.569Z,5.55
2022-08-25T15:06:35.606Z,5.63
2022-08-25T15:09:11.562Z,6.00
2022-08-25T15:11:46.051Z,5.50
2022-08-25T15:14:17.406Z,5.90
2022-08-25T15:16:49.374Z,5.40
2022-08-25T15:19:20.187Z,5.57
2022-08-25T15:21:49.610Z,5.20
2022-08-25T15:24:18.913Z,4.97
2022-08-25T15:29:29.687Z,4.80
2022-08-25T15:31:59.000Z,5.45
2022-08-25T15:34:27.478Z,5.13
2022-08-25T15:36:58.287Z,5.05
2022-08-25T15:39:27.389Z,5.10
2022-08-25T15:41:57.368Z,4.72
2022-08-25T15:44:29.472Z,4.70
2022-08-25T15:46:59.087Z,4.95
2022-08-25T15:49:29.852Z,4.85
2022-08-25T15:52:00.996Z,4.68
2022-08-25T15:54:31.036Z,4.78
2022-08-25T15:57:01.582Z,4.32
2022-08-25T15:59:30.778Z,5.25
2022-08-25T16:02:00.488Z,4.63
2022-08-25T16:04:30.558Z,5.18
2022-08-25T16:07:01.444Z,6.22
2022-08-25T16:09:31.323Z,5.10
2022-08-25T16:12:06.757Z,4.78
2022-08-25T16:14:38.340Z,4.53
2022-08-25T16:17:07.275Z,4.32
2022-08-25T16:19:38.248Z,4.78
2022-08-25T16:22:08.829Z,4.45
2022-08-25T16:24:40.799Z,4.90
2022-08-25T16:27:12.914Z,4.25
2022-08-25T16:29:44.209Z,5.25
2022-08-25T16:32:15.361Z,4.80
2022-08-25T16:34:44.539Z,5.35
2022-08-25T16:37:13.565Z,5.15
2022-08-25T16:39:46.595Z,5.00
2022-08-25T16:42:16.584Z,5.57
2022-08-25T16:44:45.758Z,5.65
2022-08-25T16:47:17.789Z,5.68
2022-08-25T16:49:49.090Z,5.70
2022-08-25T16:52:35.958Z,5.20
2022-08-25T16:55:16.596Z,6.07
2022-08-25T16:57:51.905Z,5.22
2022-08-25T17:00:23.432Z,6.18
2022-08-25T17:02:58.350Z,5.65
2022-08-25T17:05:28.172Z,5.78
2022-08-25T17:08:14.419Z,5.18
2022-08-25T17:10:44.432Z,5.47
2022-08-25T17:13:14.841Z,5.30
2022-08-25T17:15:45.486Z,5.93
2022-08-25T17:18:14.669Z,5.95
2022-08-25T17:20:45.734Z,5.60
2022-08-25T17:23:14.288Z,5.93
2022-08-25T17:25:43.750Z,5.68
2022-08-25T17:28:13.177Z,5.97
2022-08-25T17:30:43.212Z,6.20
2022-08-25T17:33:12.205Z,6.75
2022-08-25T17:35:43.407Z,6.13
2022-08-25T17:38:13.239Z,6.40
2022-08-25T17:40:43.251Z,5.95
2022-08-25T17:43:13.314Z,6.25
2022-08-25T17:45:43.016Z,6.07
2022-08-25T17:48:13.769Z,6.75
2022-08-25T17:50:42.787Z,6.28
2022-08-25T17:53:11.967Z,6.45
2022-08-25T17:55:43.190Z,5.75
2022-08-25T17:58:14.670Z,6.05
2022-08-25T18:00:47.059Z,6.03
2022-08-25T18:03:16.105Z,6.43
2022-08-25T18:05:45.119Z,6.80
2022-08-25T18:08:14.935Z,5.78
2022-08-25T18:10:43.814Z,6.20
2022-08-25T18:13:12.959Z,5.78
2022-08-25T18:15:45.534Z,6.20
2022-08-25T18:18:14.537Z,6.10
2022-08-25T18:20:46.900Z,5.82
2022-08-25T18:23:15.599Z,6.03
2022-08-25T18:25:44.889Z,6.15
2022-08-25T18:28:13.454Z,6.63
2022-08-25T18:30:45.722Z,5.78
2022-08-25T18:33:15.474Z,6.28
2022-08-25T18:35:44.046Z,6.63
2022-08-25T18:38:30.963Z,6.45
2022-08-25T18:41:01.339Z,7.32
2022-08-25T18:43:33.887Z,7.03
2022-08-25T18:46:06.001Z,7.13
2022-08-25T18:48:37.910Z,7.05
2022-08-25T18:51:07.830Z,6.10
2022-08-25T18:53:50.228Z,6.82
2022-08-25T18:56:21.032Z,7.55
2022-08-25T18:58:49.908Z,6.80
2022-08-25T19:01:22.122Z,6.90
2022-08-25T19:03:51.322Z,7.05
2022-08-25T19:06:21.332Z,7.90
2022-08-25T19:08:58.990Z,7.25
2022-08-25T19:11:28.370Z,7.50
2022-08-25T19:14:00.021Z,6.90
2022-08-25T19:16:35.941Z,8.35
2022-08-25T19:19:06.642Z,8.00
2022-08-25T19:21:38.594Z,7.20
2022-08-25T19:24:09.849Z,6.70
2022-08-25T19:26:38.903Z,8.25
2022-08-25T19:29:09.778Z,8.05
2022-08-25T19:31:42.255Z,10.02
2022-08-25T19:34:14.368Z,13.85
2022-08-25T19:36:44.841Z,14.73
2022-08-25T19:39:16.384Z,12.85
2022-08-25T19:41:46.109Z,14.45
2022-08-25T19:44:16.241Z,15.48
2022-08-25T19:46:46.909Z,13.63
2022-08-25T19:49:26.536Z,15.15
2022-08-25T19:51:57.106Z,13.70
2022-08-25T19:54:29.318Z,13.18
2022-08-25T19:56:59.175Z,12.50
2022-08-25T19:59:42.298Z,9.85
2022-08-25T20:02:16.592Z,8.57
2022-08-25T20:04:49.973Z,9.65
2022-08-25T20:07:20.635Z,10.02
2022-08-25T20:09:50.296Z,9.60
2022-08-25T20:12:20.539Z,9.35
2022-08-25T20:14:51.267Z,8.73
2022-08-25T20:17:41.550Z,9.70
2022-08-25T20:20:13.533Z,8.90
2022-08-25T20:22:43.427Z,8.80
2022-08-25T20:25:14.834Z,9.30
2022-08-25T20:27:49.452Z,10.10
2022-08-25T20:30:22.122Z,9.05
2022-08-25T20:32:55.200Z,9.75
2022-08-25T20:35:26.838Z,11.57
2022-08-25T20:37:57.601Z,9.60
2022-08-25T20:40:28.379Z,9.20
2022-08-25T20:42:59.703Z,9.88
2022-08-25T20:45:32.410Z,10.93
2022-08-25T20:48:02.229Z,11.07
2022-08-25T20:50:33.596Z,10.38
2022-08-25T20:53:02.548Z,10.80
2022-08-25T20:55:32.095Z,9.63
2022-08-25T20:58:09.651Z,9.13
2022-08-25T21:00:38.042Z,8.77
2022-08-25T21:03:09.484Z,9.95
2022-08-25T21:05:39.717Z,9.60
2022-08-25T21:08:10.975Z,9.60
2022-08-25T21:10:39.288Z,9.82
2022-08-25T21:13:08.948Z,9.07
2022-08-25T21:15:40.711Z,8.70
2022-08-25T21:18:11.405Z,8.88
2022-08-25T21:20:40.169Z,8.57
2022-08-25T21:23:09.208Z,9.98
2022-08-25T21:25:40.991Z,8.68
2022-08-25T21:28:10.153Z,10.32
2022-08-25T21:30:42.094Z,8.85
2022-08-25T21:33:16.820Z,8.98
2022-08-25T21:35:46.804Z,9.50
2022-08-25T21:38:15.358Z,9.25
2022-08-25T21:40:44.989Z,8.57
2022-08-25T21:43:20.382Z,8.90
2022-08-25T21:45:50.074Z,8.45
2022-08-25T21:48:20.168Z,8.43
2022-08-25T21:50:48.777Z,8.45
2022-08-25T21:53:27.005Z,9.38
2022-08-25T21:55:55.378Z,9.50
2022-08-25T21:58:24.559Z,9.30
2022-08-25T22:00:53.933Z,9.80
2022-08-25T22:03:24.467Z,10.13
2022-08-25T22:05:53.208Z,9.73
2022-08-25T22:08:22.483Z,9.27
2022-08-25T22:11:00.308Z,9.55
2022-08-25T22:13:30.332Z,9.00
2022-08-25T22:15:59.299Z,8.75
2022-08-25T22:18:31.537Z,9.80
2022-08-25T22:21:00.807Z,9.60
2022-08-25T22:23:44.247Z,8.80
2022-08-25T22:26:28.262Z,9.05
2022-08-25T22:28:59.507Z,8.70
2022-08-25T22:31:28.948Z,9.38
2022-08-25T22:34:00.021Z,8.77
2022-08-25T22:36:34.891Z,8.98
2022-08-25T22:39:05.565Z,9.00
2022-08-25T22:41:35.860Z,8.77
2022-08-25T22:44:10.632Z,9.13
2022-08-25T22:46:40.038Z,8.43
2022-08-25T22:49:10.576Z,8.98
2022-08-25T22:51:40.084Z,10.05
2022-08-25T22:54:09.612Z,8.48
2022-08-25T22:56:38.904Z,9.30
2022-08-25T22:59:10.711Z,10.65
2022-08-25T23:01:40.216Z,9.82
2022-08-25T23:04:10.779Z,11.00
2022-08-25T23:06:39.845Z,10.02
2022-08-25T23:09:10.737Z,9.65
2022-08-25T23:11:40.086Z,10.23
2022-08-25T23:14:11.057Z,10.40
2022-08-25T23:16:41.742Z,10.73
2022-08-25T23:19:13.996Z,9.48
2022-08-25T23:22:01.550Z,8.90
2022-08-25T23:24:31.086Z,9.48
2022-08-25T23:27:01.967Z,9.52
2022-08-25T23:29:31.553Z,8.73
2022-08-25T23:32:00.291Z,9.05
2022-08-25T23:34:30.142Z,9.05
2022-08-25T23:36:59.661Z,9.27
2022-08-25T23:39:33.863Z,9.98
2022-08-25T23:42:03.156Z,10.07
2022-08-25T23:44:32.546Z,9.77
2022-08-25T23:47:01.801Z,8.50
2022-08-25T23:49:32.636Z,9.00
2022-08-25T23:52:02.955Z,9.32
2022-08-25T23:54:52.722Z,9.57
2022-08-25T23:57:21.145Z,9.05
2022-08-25T23:59:52.057Z,9.90
